Terminal Aerodrome Forecast
Issued by NWS Amarillo, TX

Home | Current Version | Previous Version | Text Only | Print | Product List | Glossary On
Versions: 1 2 3 4 5 6 7 8 9 10 11 12 13 14 15 16 17 18
000
FTUS44 KAMA 201100
TAFAMA
TAF
KAMA 201140Z 2012/2112 18010KT P6SM BKN100
     FM201500 19015KT P6SM SCT100
     FM201900 22017KT P6SM VCSH BKN060
     FM210300 27010KT P6SM SCT080
     FM210900 30010KT P6SM SKC=

USA.gov is the U.S. government's official web portal to all federal, state and local government web resources and services.